Time;durP1;ratioP1;P1;durP2;ratioP2;P2;SDS_P1;SDS_P2;PMS_P1;PMS_P2;Temp;Humidity;BMP_temperature;BMP_pressure;BME280_temperature;BME280_humidity;BME280_pressure;Samples;Min_cycle;Max_cycle;Signal;HPM_P1;HPM_P2
2023/06/26 00:01:06;;;;;;;14.57;9.90;;;20.40;53.60;;;;;;5093251;28;20457;-69
2023/06/26 00:03:33;;;;;;;13.60;8.63;;;20.40;53.60;;;;;;5094088;28;20928;-69
2023/06/26 00:06:00;;;;;;;14.53;8.30;;;20.30;53.50;;;;;;5093269;28;20963;-69
2023/06/26 00:08:27;;;;;;;15.43;8.83;;;20.20;53.40;;;;;;5093303;28;20481;-68
2023/06/26 00:10:54;;;;;;;16.03;8.47;;;20.20;53.50;;;;;;5092980;28;20945;-69
2023/06/26 00:13:23;;;;;;;16.43;10.10;;;20.10;53.30;;;;;;5092853;28;20540;-69
2023/06/26 00:15:49;;;;;;;13.13;8.67;;;19.80;57.10;;;;;;5092529;28;20449;-69
2023/06/26 00:18:16;;;;;;;16.77;9.43;;;19.70;58.10;;;;;;5092748;28;20844;-69
2023/06/26 00:20:43;;;;;;;18.30;10.30;;;19.50;59.50;;;;;;5093392;28;20454;-69
2023/06/26 00:23:10;;;;;;;19.40;13.17;;;19.40;61.30;;;;;;5093065;28;20717;-69
2023/06/26 00:25:37;;;;;;;18.00;16.40;;;19.20;64.20;;;;;;5093077;28;20454;-69
2023/06/26 00:28:04;;;;;;;28.13;25.67;;;19.00;67.60;;;;;;5093358;28;20485;-69
2023/06/26 00:30:32;;;;;;;32.90;30.63;;;18.80;69.00;;;;;;5093282;28;20462;-69
2023/06/26 00:32:59;;;;;;;39.10;36.40;;;18.70;69.00;;;;;;5093440;28;20812;-70
2023/06/26 00:35:25;;;;;;;45.13;42.37;;;18.60;69.90;;;;;;5091526;28;20461;-69
2023/06/26 00:37:52;;;;;;;51.83;48.73;;;18.60;72.10;;;;;;5093328;28;20457;-69
2023/06/26 00:40:19;;;;;;;50.70;47.50;;;18.50;72.80;;;;;;5093015;28;20454;-69
2023/06/26 00:42:46;;;;;;;52.50;49.10;;;18.40;73.30;;;;;;5092195;28;20449;-69
2023/06/26 00:45:13;;;;;;;44.37;41.67;;;18.40;73.80;;;;;;5092145;28;20457;-69
2023/06/26 00:47:41;;;;;;;33.10;30.23;;;18.40;72.90;;;;;;5093124;28;20457;-69
2023/06/26 00:50:09;;;;;;;22.90;20.87;;;18.40;72.50;;;;;;5091807;28;20882;-69
2023/06/26 00:52:36;;;;;;;21.33;19.10;;;18.40;72.20;;;;;;5092956;28;20469;-69
2023/06/26 00:55:05;;;;;;;25.97;23.93;;;18.50;70.90;;;;;;5092260;28;20526;-69
2023/06/26 00:57:32;;;;;;;27.70;25.60;;;18.50;71.40;;;;;;5092225;28;20450;-69
2023/06/26 00:59:59;;;;;;;21.40;19.60;;;18.50;72.80;;;;;;5092321;28;20532;-69
2023/06/26 01:02:33;;;;;;;22.70;20.53;;;18.50;72.30;;;;;;5092690;28;20446;-68
2023/06/26 01:05:06;;;;;;;22.13;20.03;;;18.50;72.00;;;;;;5092417;28;20449;-69
2023/06/26 01:07:36;;;;;;;26.67;24.50;;;18.50;72.80;;;;;;5092270;28;20859;-69
2023/06/26 01:10:04;;;;;;;28.03;25.87;;;18.40;73.30;;;;;;5092238;28;20479;-68
2023/06/26 01:12:32;;;;;;;41.10;38.67;;;18.30;74.60;;;;;;5091916;28;20472;-68
2023/06/26 01:14:59;;;;;;;39.53;36.90;;;18.20;76.40;;;;;;5091548;28;20450;-68
2023/06/26 01:17:31;;;;;;;47.37;44.67;;;18.10;76.50;;;;;;5092576;28;20450;-69
2023/06/26 01:19:58;;;;;;;41.97;39.23;;;18.10;76.40;;;;;;5091912;28;20458;-68
2023/06/26 01:22:32;;;;;;;55.87;52.97;;;18.10;76.40;;;;;;5092394;28;20465;-69
2023/06/26 01:25:12;;;;;;;42.43;40.23;;;18.00;76.30;;;;;;5092331;28;20835;-68
2023/06/26 01:27:42;;;;;;;41.93;39.13;;;18.10;76.40;;;;;;5092099;28;20833;-69
2023/06/26 01:30:10;;;;;;;39.77;37.23;;;18.10;76.40;;;;;;5092722;28;20454;-69
2023/06/26 01:32:37;;;;;;;33.90;31.70;;;18.20;75.60;;;;;;5091063;28;20466;-69
2023/06/26 01:35:07;;;;;;;43.63;40.80;;;18.20;74.90;;;;;;5091720;28;20473;-69
2023/06/26 01:37:34;;;;;;;22.60;20.90;;;18.20;75.50;;;;;;5092207;28;20446;-69
2023/06/26 01:40:01;;;;;;;26.97;24.20;;;18.20;72.90;;;;;;5091212;28;20449;-69
2023/06/26 01:42:28;;;;;;;32.57;30.00;;;18.20;73.40;;;;;;5092091;28;20767;-69
2023/06/26 01:44:57;;;;;;;19.53;17.83;;;18.20;74.10;;;;;;5092071;28;20450;-69
2023/06/26 01:47:27;;;;;;;17.43;15.73;;;18.20;72.60;;;;;;5092333;28;20809;-69
2023/06/26 01:50:00;;;;;;;15.47;11.50;;;18.20;71.50;;;;;;5092587;28;20536;-69
2023/06/26 01:52:35;;;;;;;16.20;11.23;;;18.40;68.60;;;;;;5091562;28;20968;-69
2023/06/26 01:55:09;;;;;;;12.33;9.20;;;18.60;68.90;;;;;;5091970;28;20456;-69
2023/06/26 01:57:38;;;;;;;12.70;7.83;;;18.80;64.70;;;;;;5091901;28;20452;-68
2023/06/26 02:00:10;;;;;;;16.03;9.60;;;18.90;62.90;;;;;;5092331;28;20802;-69
2023/06/26 02:02:37;;;;;;;13.50;7.50;;;18.80;63.90;;;;;;5091480;28;20947;-68
2023/06/26 02:05:04;;;;;;;15.67;8.43;;;18.90;60.80;;;;;;5090871;28;20446;-69
2023/06/26 02:07:30;;;;;;;16.10;9.80;;;18.90;63.00;;;;;;5091393;28;20967;-69
2023/06/26 02:09:57;;;;;;;14.13;8.83;;;18.80;63.60;;;;;;5091507;28;20454;-69
2023/06/26 02:12:24;;;;;;;17.63;9.33;;;18.70;64.90;;;;;;5090521;28;20472;-69
2023/06/26 02:14:51;;;;;;;15.60;10.03;;;18.50;68.70;;;;;;5090479;28;20545;-69
2023/06/26 02:17:19;;;;;;;18.30;11.47;;;18.30;68.50;;;;;;5091681;28;20456;-69
2023/06/26 02:19:47;;;;;;;18.63;12.10;;;18.20;68.50;;;;;;5092575;28;20933;-69
2023/06/26 02:22:14;;;;;;;20.67;12.60;;;18.10;68.60;;;;;;5095670;28;20437;-69
2023/06/26 02:24:41;;;;;;;23.93;14.60;;;18.00;70.30;;;;;;5095425;28;20453;-69
2023/06/26 02:27:08;;;;;;;15.50;13.60;;;17.80;70.90;;;;;;5095147;28;20824;-69
2023/06/26 02:29:35;;;;;;;17.00;13.30;;;17.80;71.90;;;;;;5096074;28;20488;-69
2023/06/26 02:32:02;;;;;;;21.00;19.40;;;17.80;71.30;;;;;;5095240;28;20446;-69
2023/06/26 02:34:30;;;;;;;29.70;24.77;;;17.80;72.80;;;;;;5095400;28;20458;-69
2023/06/26 02:36:58;;;;;;;15.60;13.87;;;17.70;73.50;;;;;;5095722;28;20458;-69
2023/06/26 02:39:25;;;;;;;19.70;12.07;;;17.80;70.80;;;;;;5094400;28;20450;-69
2023/06/26 02:41:52;;;;;;;13.00;10.30;;;17.70;69.70;;;;;;5094869;28;20959;-69
2023/06/26 02:44:19;;;;;;;14.20;12.47;;;17.60;69.80;;;;;;5094505;28;20971;-69
2023/06/26 02:46:46;;;;;;;13.83;12.57;;;17.70;71.80;;;;;;5095558;28;20940;-69
2023/06/26 02:49:12;;;;;;;13.60;11.43;;;17.80;71.50;;;;;;5095101;28;20446;-69
2023/06/26 02:51:40;;;;;;;12.30;10.17;;;17.90;70.10;;;;;;5094416;28;20452;-69
2023/06/26 02:54:07;;;;;;;12.87;9.50;;;18.00;68.30;;;;;;5094252;28;20466;-68
2023/06/26 02:56:34;;;;;;;14.13;8.73;;;18.20;68.40;;;;;;5095401;28;20445;-69
2023/06/26 02:59:01;;;;;;;11.50;8.87;;;18.20;68.40;;;;;;5093533;28;20460;-69
2023/06/26 03:01:28;;;;;;;13.30;8.20;;;18.30;68.50;;;;;;5095167;28;20941;-69
2023/06/26 03:03:55;;;;;;;10.33;7.57;;;18.40;67.10;;;;;;5094571;28;20815;-69
2023/06/26 03:06:22;;;;;;;9.47;7.17;;;18.60;66.00;;;;;;5094702;28;20514;-69
2023/06/26 03:08:50;;;;;;;13.83;8.27;;;18.60;66.10;;;;;;5094921;28;20446;-69
2023/06/26 03:11:17;;;;;;;10.70;7.63;;;18.60;65.80;;;;;;5093445;28;20833;-68
2023/06/26 03:13:43;;;;;;;18.23;8.80;;;18.70;66.90;;;;;;5094061;28;20473;-68
2023/06/26 03:16:10;;;;;;;12.57;8.47;;;18.80;67.10;;;;;;5094286;28;20816;-68
2023/06/26 03:18:37;;;;;;;16.77;8.57;;;18.90;66.50;;;;;;5094882;28;20472;-68
2023/06/26 03:21:04;;;;;;;11.90;8.30;;;19.00;66.80;;;;;;5094786;28;20483;-68
2023/06/26 03:23:30;;;;;;;11.47;6.53;;;19.20;65.20;;;;;;5094379;28;20533;-68
2023/06/26 03:25:59;;;;;;;9.00;6.57;;;19.60;61.80;;;;;;5094161;28;20462;-68
2023/06/26 03:28:25;;;;;;;13.10;6.30;;;19.70;61.60;;;;;;5094347;28;20446;-68
2023/06/26 03:30:52;;;;;;;11.50;6.70;;;19.70;61.60;;;;;;5088030;28;20446;-68
2023/06/26 03:33:19;;;;;;;9.97;6.73;;;19.80;61.60;;;;;;5081745;28;20471;-68
2023/06/26 03:35:46;;;;;;;10.70;6.30;;;19.80;61.60;;;;;;5074049;28;20493;-68
2023/06/26 03:38:13;;;;;;;11.40;6.80;;;19.80;61.60;;;;;;5092560;28;20453;-68
2023/06/26 03:40:39;;;;;;;11.13;7.07;;;19.70;61.60;;;;;;5094382;28;20455;-68
2023/06/26 03:43:07;;;;;;;10.13;7.00;;;19.80;61.60;;;;;;5094843;28;20446;-68
2023/06/26 03:45:34;;;;;;;12.60;6.27;;;20.00;59.30;;;;;;5094109;28;20468;-68
2023/06/26 03:48:01;;;;;;;11.27;5.93;;;20.00;59.70;;;;;;5094002;28;20454;-68
2023/06/26 03:50:28;;;;;;;10.93;6.30;;;20.00;60.00;;;;;;5081559;28;20534;-68
2023/06/26 03:52:55;;;;;;;10.80;6.47;;;20.00;58.70;;;;;;5074562;28;20485;-68
2023/06/26 03:55:24;;;;;;;10.00;6.40;;;20.00;59.70;;;;;;5086765;28;20446;-68
2023/06/26 03:57:50;;;;;;;9.27;6.70;;;20.10;58.90;;;;;;5094351;28;20460;-68
2023/06/26 04:00:19;;;;;;;22.33;6.83;;;20.10;60.30;;;;;;5093373;28;20460;-68
2023/06/26 04:02:46;;;;;;;12.30;6.70;;;20.20;58.20;;;;;;5093545;28;20446;-68
2023/06/26 04:05:13;;;;;;;12.80;7.33;;;20.30;57.80;;;;;;5093722;28;20449;-68
2023/06/26 04:07:39;;;;;;;14.87;6.97;;;20.30;57.90;;;;;;5092925;28;20452;-68
2023/06/26 04:10:07;;;;;;;11.50;7.83;;;20.30;58.50;;;;;;5093762;28;20454;-67
2023/06/26 04:12:34;;;;;;;10.47;5.67;;;20.30;58.20;;;;;;5092839;28;20450;-68
2023/06/26 04:15:01;;;;;;;11.47;7.27;;;20.30;60.00;;;;;;5093460;28;20454;-68
2023/06/26 04:17:29;;;;;;;11.80;6.60;;;20.30;59.10;;;;;;5093696;28;20449;-68
2023/06/26 04:19:56;;;;;;;10.33;7.20;;;20.40;59.30;;;;;;5093382;28;20540;-68
2023/06/26 04:22:23;;;;;;;15.33;7.27;;;20.40;58.00;;;;;;5093654;28;20461;-68
2023/06/26 04:24:49;;;;;;;9.63;6.40;;;20.50;58.30;;;;;;5093174;28;20450;-68
2023/06/26 04:27:16;;;;;;;11.10;6.50;;;20.50;59.90;;;;;;5093571;28;20973;-68
2023/06/26 04:29:43;;;;;;;11.10;7.53;;;20.60;60.40;;;;;;5093534;28;20472;-68
2023/06/26 04:32:10;;;;;;;11.03;6.83;;;20.60;60.60;;;;;;5093684;28;20449;-67
2023/06/26 04:34:41;;;;;;;11.80;7.67;;;20.60;60.00;;;;;;5093068;28;20477;-68
2023/06/26 04:37:09;;;;;;;14.93;6.60;;;20.70;59.50;;;;;;5093971;28;20514;-68
2023/06/26 04:39:36;;;;;;;18.37;13.37;;;20.80;58.40;;;;;;5093123;28;20946;-68
2023/06/26 04:42:03;;;;;;;12.90;7.13;;;20.90;57.10;;;;;;5092684;28;20454;-68
2023/06/26 04:44:30;;;;;;;11.97;6.70;;;21.00;58.00;;;;;;5090217;28;20486;-68
2023/06/26 04:46:57;;;;;;;9.30;5.50;;;21.00;54.80;;;;;;5084677;28;20513;-68
2023/06/26 04:49:24;;;;;;;11.07;6.90;;;21.10;54.30;;;;;;5076529;28;20454;-68
2023/06/26 04:51:53;;;;;;;11.30;6.63;;;21.10;54.20;;;;;;5092591;28;20456;-68
2023/06/26 04:54:20;;;;;;;10.30;5.87;;;21.20;54.30;;;;;;5091849;28;20473;-68
2023/06/26 04:56:47;;;;;;;8.60;5.50;;;21.20;54.30;;;;;;5092670;28;20461;-68
2023/06/26 04:59:14;;;;;;;10.20;6.50;;;21.30;54.50;;;;;;5092696;28;20914;-68
2023/06/26 05:01:42;;;;;;;9.30;6.70;;;21.30;54.40;;;;;;5093267;28;20507;-68
2023/06/26 05:04:09;;;;;;;13.50;6.23;;;21.30;56.20;;;;;;5092319;28;20884;-68
2023/06/26 05:06:36;;;;;;;8.77;5.43;;;21.30;57.20;;;;;;5092099;28;20477;-68
2023/06/26 05:09:04;;;;;;;15.23;6.47;;;21.30;53.30;;;;;;5091607;28;20453;-68
2023/06/26 05:11:31;;;;;;;10.63;6.25;;;21.30;54.40;;;;;;5090432;28;20994;-68
2023/06/26 05:13:57;;;;;;;9.33;5.63;;;21.30;54.40;;;;;;5091015;28;20476;-68
2023/06/26 05:16:24;;;;;;;11.10;6.60;;;21.50;54.60;;;;;;5091119;28;20442;-68
2023/06/26 05:18:51;;;;;;;15.20;5.50;;;21.60;51.80;;;;;;5073191;28;20447;-67
2023/06/26 05:21:18;;;;;;;9.20;6.10;;;21.80;50.40;;;;;;5083738;28;20465;-68
2023/06/26 05:23:47;;;;;;;9.63;5.70;;;21.80;49.50;;;;;;5092234;28;20818;-68
2023/06/26 05:26:16;;;;;;;11.10;6.27;;;21.70;45.90;;;;;;5090444;28;20457;-68
2023/06/26 05:28:48;;;;;;;12.10;6.23;;;21.60;47.40;;;;;;5092399;28;20454;-68
2023/06/26 05:31:15;;;;;;;9.03;4.60;;;21.60;47.30;;;;;;5091428;28;20446;-68
2023/06/26 05:33:45;;;;;;;9.10;5.47;;;21.60;49.30;;;;;;5092419;28;20469;-68
2023/06/26 05:36:14;;;;;;;9.77;5.80;;;21.50;48.20;;;;;;5090851;28;20454;-68
2023/06/26 05:38:41;;;;;;;10.73;5.63;;;21.70;48.20;;;;;;5092186;28;20446;-68
2023/06/26 05:41:09;;;;;;;11.33;5.20;;;21.70;45.90;;;;;;5091664;28;20973;-68
2023/06/26 05:43:37;;;;;;;10.50;5.90;;;21.70;45.90;;;;;;5091382;28;20529;-68
2023/06/26 05:46:04;;;;;;;8.57;5.43;;;21.90;46.20;;;;;;5091256;28;20454;-69
2023/06/26 05:48:30;;;;;;;8.77;4.80;;;22.00;46.20;;;;;;5091715;28;20446;-68
2023/06/26 05:50:57;;;;;;;11.80;5.47;;;22.00;47.10;;;;;;5090949;28;20949;-68
2023/06/26 05:53:25;;;;;;;12.57;6.07;;;22.10;45.80;;;;;;5091395;28;20476;-68
2023/06/26 05:55:52;;;;;;;11.10;5.50;;;22.10;44.10;;;;;;5097344;28;20453;-68
2023/06/26 05:58:22;;;;;;;9.23;4.73;;;22.00;44.90;;;;;;5096432;28;20825;-68
2023/06/26 06:00:50;;;;;;;11.20;4.90;;;21.80;46.00;;;;;;5096405;28;20446;-69
2023/06/26 06:03:17;;;;;;;10.13;5.40;;;21.90;45.50;;;;;;5097900;28;20446;-68
2023/06/26 06:05:44;;;;;;;10.33;5.47;;;21.80;46.00;;;;;;5097285;28;20446;-68
2023/06/26 06:08:11;;;;;;;14.50;5.33;;;21.70;46.00;;;;;;5097684;28;20445;-68
2023/06/26 06:10:38;;;;;;;9.90;5.00;;;21.70;46.00;;;;;;5097667;28;20812;-68
2023/06/26 06:13:04;;;;;;;9.73;5.10;;;21.50;46.20;;;;;;5097709;28;20446;-68
2023/06/26 06:15:32;;;;;;;12.30;5.00;;;21.40;48.00;;;;;;5097848;28;20450;-68
2023/06/26 06:18:00;;;;;;;9.13;5.13;;;21.40;49.10;;;;;;5098558;28;20450;-68
2023/06/26 06:20:26;;;;;;;11.07;5.53;;;21.10;50.30;;;;;;5096863;28;20468;-68
2023/06/26 06:22:53;;;;;;;11.97;4.93;;;21.00;50.00;;;;;;5097911;28;20455;-70
2023/06/26 06:25:20;;;;;;;12.20;5.40;;;20.80;51.10;;;;;;5097840;28;20445;-69
2023/06/26 06:27:47;;;;;;;11.27;4.90;;;20.90;51.60;;;;;;5098146;28;20445;-69
2023/06/26 06:30:14;;;;;;;10.00;4.80;;;21.50;49.90;;;;;;5098145;28;20456;-70
2023/06/26 06:32:41;;;;;;;11.30;5.80;;;22.10;49.50;;;;;;5094113;28;20855;-70
2023/06/26 06:35:09;;;;;;;11.20;5.57;;;22.70;46.90;;;;;;5086458;28;21015;-70
2023/06/26 06:37:37;;;;;;;11.90;4.40;;;23.00;42.70;;;;;;5093719;28;20445;-70
2023/06/26 06:40:05;;;;;;;15.40;5.40;;;23.20;40.50;;;;;;5098837;28;20780;-70
2023/06/26 06:42:32;;;;;;;14.43;4.70;;;23.40;43.30;;;;;;5100128;28;20489;-70
2023/06/26 06:44:59;;;;;;;11.67;4.17;;;23.70;38.80;;;;;;5098860;28;20445;-69
2023/06/26 06:47:26;;;;;;;9.27;4.63;;;23.60;38.70;;;;;;5098983;28;20815;-69
2023/06/26 06:49:53;;;;;;;9.20;5.03;;;23.70;38.70;;;;;;5098370;28;20457;-70
2023/06/26 06:52:21;;;;;;;14.53;5.63;;;23.60;38.70;;;;;;5098439;28;20561;-69
2023/06/26 06:54:53;;;;;;;12.30;5.50;;;23.60;38.70;;;;;;5097841;28;20646;-70
2023/06/26 06:57:20;;;;;;;17.63;6.57;;;24.20;39.10;;;;;;5098739;28;20964;-69
2023/06/26 06:59:48;;;;;;;11.50;4.70;;;23.90;35.50;;;;;;5098285;28;20478;-70
2023/06/26 07:02:15;;;;;;;16.10;5.20;;;23.60;38.70;;;;;;5098438;28;20464;-70
2023/06/26 07:04:42;;;;;;;11.53;4.70;;;23.00;38.10;;;;;;5094798;28;20457;-70
2023/06/26 07:07:09;;;;;;;11.23;4.93;;;22.70;39.70;;;;;;5093176;28;20456;-69
2023/06/26 07:09:37;;;;;;;15.60;5.07;;;22.70;41.80;;;;;;5093741;28;20540;-70
2023/06/26 07:12:05;;;;;;;14.80;5.50;;;23.30;40.00;;;;;;5094032;28;20454;-70
2023/06/26 07:14:32;;;;;;;14.30;5.77;;;23.70;38.70;;;;;;5093298;28;20993;-70
2023/06/26 07:16:59;;;;;;;17.37;5.43;;;23.90;38.90;;;;;;5094135;28;20820;-70
2023/06/26 07:19:25;;;;;;;13.13;5.20;;;24.10;36.00;;;;;;5093762;28;20458;-69
2023/06/26 07:21:52;;;;;;;11.70;4.80;;;24.00;36.80;;;;;;5093910;28;20459;-69
2023/06/26 07:24:19;;;;;;;11.13;5.47;;;24.30;38.10;;;;;;5093394;28;20809;-69
2023/06/26 07:26:47;;;;;;;15.37;6.10;;;24.20;37.20;;;;;;5094921;28;20454;-70
2023/06/26 07:29:14;;;;;;;11.00;5.10;;;24.10;34.10;;;;;;5095017;28;20450;-70
2023/06/26 07:31:41;;;;;;;15.90;4.80;;;24.20;32.60;;;;;;5094923;28;20450;-70
2023/06/26 07:34:08;;;;;;;13.37;6.23;;;24.20;30.60;;;;;;5092998;28;20505;-71
2023/06/26 07:36:35;;;;;;;10.57;4.70;;;24.40;30.10;;;;;;5094819;28;20454;-72
2023/06/26 07:39:02;;;;;;;12.90;4.63;;;24.50;30.20;;;;;;5093802;28;20461;-71
2023/06/26 07:41:30;;;;;;;13.77;4.73;;;24.60;30.30;;;;;;5094548;28;20453;-71
2023/06/26 07:43:59;;;;;;;9.67;4.20;;;24.80;30.50;;;;;;5094250;28;20473;-70
2023/06/26 07:46:26;;;;;;;11.43;5.03;;;25.10;30.70;;;;;;5094605;28;20813;-70
2023/06/26 07:48:52;;;;;;;11.87;4.77;;;24.60;30.30;;;;;;5094391;28;20450;-70
2023/06/26 07:51:19;;;;;;;13.60;5.13;;;24.40;30.10;;;;;;5094519;28;20457;-70
2023/06/26 07:53:46;;;;;;;18.93;5.97;;;24.50;32.80;;;;;;5094400;28;20460;-71
2023/06/26 07:56:13;;;;;;;14.53;5.43;;;24.50;31.10;;;;;;5094245;28;20450;-70
2023/06/26 07:58:40;;;;;;;13.80;4.77;;;24.60;30.30;;;;;;5094201;28;20453;-70
2023/06/26 08:01:08;;;;;;;16.57;5.80;;;24.40;31.20;;;;;;5094380;28;20533;-70
2023/06/26 08:03:35;;;;;;;14.83;5.13;;;24.30;30.00;;;;;;5094098;28;20454;-70
2023/06/26 08:06:03;;;;;;;15.07;5.50;;;24.30;33.10;;;;;;5093664;28;20458;-70
2023/06/26 08:08:29;;;;;;;16.80;5.60;;;24.20;32.60;;;;;;5094174;28;20454;-70
2023/06/26 08:10:56;;;;;;;9.03;4.87;;;24.20;32.20;;;;;;5093736;28;20446;-70
2023/06/26 08:13:23;;;;;;;23.53;6.53;;;23.80;32.20;;;;;;5094359;28;20481;-70
2023/06/26 08:15:50;;;;;;;16.30;5.50;;;23.90;33.40;;;;;;5093410;28;20440;-70
2023/06/26 08:18:19;;;;;;;11.00;4.80;;;24.40;30.10;;;;;;5093141;28;20192;-72
2023/06/26 08:20:46;;;;;;;11.80;5.20;;;23.70;31.00;;;;;;5094343;28;20476;-71
2023/06/26 08:23:12;;;;;;;14.37;4.97;;;23.40;32.60;;;;;;5094326;28;20425;-73
2023/06/26 08:25:39;;;;;;;10.57;4.60;;;23.50;33.20;;;;;;5093711;28;20454;-71
2023/06/26 08:28:06;;;;;;;13.30;4.93;;;24.00;34.40;;;;;;5093618;28;20454;-71
2023/06/26 08:30:33;;;;;;;15.10;4.90;;;24.00;33.40;;;;;;5093617;28;20791;-71
2023/06/26 08:33:00;;;;;;;12.77;5.03;;;23.90;31.10;;;;;;5093784;28;20464;-70
2023/06/26 08:35:28;;;;;;;17.23;5.20;;;24.00;33.10;;;;;;5092850;28;20478;-70
2023/06/26 08:37:55;;;;;;;9.80;5.00;;;23.40;31.60;;;;;;5093681;28;20450;-70
2023/06/26 08:40:22;;;;;;;18.57;6.20;;;23.40;34.70;;;;;;5093364;28;20827;-71
2023/06/26 08:42:52;;;;;;;12.03;5.23;;;22.90;35.50;;;;;;5093665;28;20451;-70
2023/06/26 08:45:19;;;;;;;21.57;5.50;;;22.70;37.80;;;;;;5092915;28;20449;-71
2023/06/26 08:47:48;;;;;;;13.20;6.80;;;22.90;35.60;;;;;;5093628;28;20450;-71
2023/06/26 08:50:18;;;;;;;16.00;6.60;;;22.90;38.00;;;;;;5093231;28;20454;-70
2023/06/26 08:52:55;;;;;;;10.43;5.53;;;23.30;34.60;;;;;;5093650;28;20512;-71
2023/06/26 08:55:24;;;;;;;12.43;5.33;;;23.40;33.90;;;;;;5092792;28;20469;-71
2023/06/26 08:57:51;;;;;;;12.63;5.47;;;23.50;33.20;;;;;;5093094;28;20456;-71
2023/06/26 09:00:19;;;;;;;12.73;5.00;;;23.80;29.80;;;;;;5093163;28;20460;-71
2023/06/26 09:02:46;;;;;;;14.33;6.20;;;24.00;29.90;;;;;;5093318;28;20460;-71
2023/06/26 09:05:13;;;;;;;11.47;5.50;;;24.20;30.00;;;;;;5092775;28;20472;-71
2023/06/26 09:07:40;;;;;;;15.83;5.10;;;25.00;26.50;;;;;;5093215;28;20803;-71
2023/06/26 09:10:09;;;;;;;12.07;5.00;;;25.60;27.30;;;;;;5092803;28;20450;-71
2023/06/26 09:12:37;;;;;;;12.07;4.67;;;25.80;26.70;;;;;;5093079;28;20453;-71
2023/06/26 09:15:06;;;;;;;10.57;5.10;;;24.80;24.20;;;;;;5092448;28;20470;-72
2023/06/26 09:17:39;;;;;;;12.73;5.23;;;23.90;28.20;;;;;;5093017;28;20450;-71
2023/06/26 09:20:08;;;;;;;12.57;5.50;;;23.60;28.70;;;;;;5092381;28;20453;-71
2023/06/26 09:22:38;;;;;;;11.47;5.23;;;24.00;27.70;;;;;;5092889;28;20609;-71
2023/06/26 09:25:08;;;;;;;14.73;5.13;;;24.60;26.20;;;;;;5092269;28;20536;-71
2023/06/26 09:27:35;;;;;;;14.40;5.20;;;25.10;25.30;;;;;;5092622;28;20452;-71
2023/06/26 09:30:03;;;;;;;18.20;5.70;;;25.20;23.40;;;;;;5092244;28;20516;-71
2023/06/26 09:32:30;;;;;;;9.07;4.70;;;25.70;24.10;;;;;;5092666;28;20929;-72
2023/06/26 09:35:00;;;;;;;16.93;5.70;;;25.70;23.60;;;;;;5091924;28;20473;-71
2023/06/26 09:37:27;;;;;;;14.73;5.20;;;26.10;21.70;;;;;;5092972;28;20453;-72
2023/06/26 09:39:54;;;;;;;12.10;5.20;;;25.50;22.40;;;;;;5092782;28;20472;-71
2023/06/26 09:42:22;;;;;;;10.83;5.37;;;25.60;19.90;;;;;;5092655;28;20544;-71
2023/06/26 09:44:50;;;;;;;8.30;4.20;;;25.20;23.40;;;;;;5092087;28;20420;-71
2023/06/26 09:47:19;;;;;;;10.77;4.10;;;25.70;19.90;;;;;;5092543;28;20527;-71
2023/06/26 09:49:46;;;;;;;11.13;4.30;;;26.10;18.10;;;;;;5092131;28;20806;-71
2023/06/26 09:52:16;;;;;;;14.80;4.90;;;26.20;18.30;;;;;;5092554;28;20449;-71
2023/06/26 09:54:44;;;;;;;13.67;5.03;;;26.50;16.60;;;;;;5091733;28;20524;-71
2023/06/26 09:57:12;;;;;;;11.43;4.87;;;26.40;16.50;;;;;;5092501;28;20454;-72
2023/06/26 09:59:41;;;;;;;13.77;5.07;;;25.70;17.50;;;;;;5092061;28;20449;-71
2023/06/26 10:02:08;;;;;;;13.83;4.20;;;25.90;17.50;;;;;;5092508;28;20983;-71
2023/06/26 10:04:36;;;;;;;8.00;4.13;;;26.00;14.10;;;;;;5091708;28;20457;-72
2023/06/26 10:07:07;;;;;;;13.40;4.40;;;26.30;16.50;;;;;;5092503;28;20510;-72
2023/06/26 10:09:37;;;;;;;13.90;4.13;;;26.90;15.10;;;;;;5092215;28;20454;-71
2023/06/26 10:12:07;;;;;;;10.07;5.03;;;26.80;13.70;;;;;;5092532;28;20472;-68
2023/06/26 10:14:36;;;;;;;16.20;4.50;;;26.70;12.70;;;;;;5091891;28;20480;-69
2023/06/26 10:17:07;;;;;;;15.73;4.60;;;25.60;13.70;;;;;;5092012;28;20460;-70
2023/06/26 10:19:35;;;;;;;9.13;4.80;;;25.60;16.10;;;;;;5092002;28;20489;-69
2023/06/26 10:22:04;;;;;;;11.60;3.77;;;26.10;14.50;;;;;;5092238;28;20774;-69
2023/06/26 10:24:34;;;;;;;10.00;3.60;;;26.30;11.60;;;;;;5091529;28;20460;-69
2023/06/26 10:27:05;;;;;;;14.67;3.90;;;26.60;11.00;;;;;;5092518;28;20458;-69
2023/06/26 10:29:35;;;;;;;12.10;4.00;;;26.60;12.00;;;;;;5091798;28;20821;-69
2023/06/26 10:32:05;;;;;;;8.23;2.97;;;26.50;10.30;;;;;;5092459;28;20456;-69
2023/06/26 10:34:32;;;;;;;9.47;3.80;;;26.00;14.40;;;;;;5091509;28;20450;-68
2023/06/26 10:37:04;;;;;;;9.90;3.07;;;26.60;9.60;;;;;;5091966;28;20522;-69
2023/06/26 10:39:48;;;;;;;8.50;2.83;;;27.00;9.20;;;;;;5092243;28;20461;-69
2023/06/26 10:42:15;;;;;;;10.67;3.20;;;27.30;8.80;;;;;;5095172;28;20886;-69
2023/06/26 10:44:43;;;;;;;9.80;2.83;;;28.10;4.70;;;;;;5095234;28;20476;-69
2023/06/26 10:47:11;;;;;;;8.80;3.13;;;28.10;2.00;;;;;;5095692;28;20544;-69
2023/06/26 10:49:40;;;;;;;6.23;2.23;;;28.00;1.00;;;;;;5095631;28;20464;-70
2023/06/26 10:52:07;;;;;;;11.80;3.03;;;27.90;1.00;;;;;;5095609;28;20423;-69
2023/06/26 10:54:34;;;;;;;10.80;2.90;;;27.90;1.80;;;;;;5094848;28;20823;-68
2023/06/26 10:57:03;;;;;;;8.70;2.50;;;28.00;1.00;;;;;;5095737;28;20464;-66
2023/06/26 10:59:32;;;;;;;8.10;2.30;;;28.20;1.00;;;;;;5095487;28;20461;-66
2023/06/26 11:02:01;;;;;;;10.80;2.40;;;28.50;1.00;;;;;;5095425;28;20967;-66
2023/06/26 11:04:40;;;;;;;9.60;3.10;;;27.40;1.00;;;;;;5093970;28;20456;-73
2023/06/26 11:07:17;;;;;;;11.00;2.57;;;27.20;1.40;;;;;;5095771;28;20198;-73
2023/06/26 11:09:55;;;;;;;9.53;3.07;;;27.40;1.00;;;;;;5095560;28;20455;-72
2023/06/26 11:12:39;;;;;;;12.50;3.00;;;26.70;1.20;;;;;;5095993;28;20815;-73
2023/06/26 11:15:09;;;;;;;10.67;3.17;;;26.00;1.70;;;;;;5095117;28;20460;-73
2023/06/26 11:17:36;;;;;;;12.27;3.00;;;26.10;1.00;;;;;;5095622;28;20465;-72
2023/06/26 11:20:07;;;;;;;5.30;2.03;;;26.70;1.20;;;;;;5095308;28;20499;-71
2023/06/26 11:22:37;;;;;;;18.13;3.83;;;27.40;3.30;;;;;;5095496;28;20823;-72
2023/06/26 11:25:04;;;;;;;5.97;2.13;;;27.30;1.00;;;;;;5094395;28;20446;-72
2023/06/26 11:27:32;;;;;;;7.83;2.30;;;26.70;1.00;;;;;;5094868;28;20453;-71
2023/06/26 11:30:00;;;;;;;11.53;2.53;;;26.20;1.00;;;;;;5094485;28;20545;-71
2023/06/26 11:32:28;;;;;;;14.13;1.97;;;26.20;1.00;;;;;;5094648;28;20498;-71
2023/06/26 11:34:55;;;;;;;7.07;2.43;;;26.90;1.00;;;;;;5094284;28;20755;-71
2023/06/26 11:37:23;;;;;;;9.20;1.83;;;27.90;1.00;;;;;;5094990;28;20454;-71
2023/06/26 11:39:51;;;;;;;8.83;2.63;;;28.30;1.00;;;;;;5094663;28;20903;-71
2023/06/26 11:42:17;;;;;;;9.10;2.80;;;27.40;1.00;;;;;;5094593;28;20454;-72
2023/06/26 11:44:45;;;;;;;7.17;2.40;;;27.70;1.00;;;;;;5094369;28;20467;-71
2023/06/26 11:47:15;;;;;;;8.53;2.50;;;28.30;1.00;;;;;;5094753;28;21011;-71
2023/06/26 11:49:44;;;;;;;7.93;2.07;;;28.30;1.00;;;;;;5094415;28;20430;-71
2023/06/26 11:52:11;;;;;;;7.90;2.50;;;27.40;1.00;;;;;;5094197;28;20802;-71
2023/06/26 11:54:39;;;;;;;6.40;2.30;;;26.50;1.00;;;;;;5094000;28;20488;-72
2023/06/26 11:57:06;;;;;;;8.07;2.30;;;26.50;1.00;;;;;;5094214;28;20620;-70
2023/06/26 11:59:36;;;;;;;8.53;2.63;;;26.10;1.00;;;;;;5094112;28;20450;-71
2023/06/26 12:02:06;;;;;;;10.37;2.30;;;25.30;1.00;;;;;;5094441;28;20801;-71
2023/06/26 12:04:35;;;;;;;9.40;2.93;;;25.40;1.00;;;;;;5093927;28;20921;-70
2023/06/26 12:07:03;;;;;;;8.77;2.30;;;25.80;1.00;;;;;;5094709;28;20913;-71
2023/06/26 12:09:33;;;;;;;9.30;1.80;;;26.00;1.00;;;;;;5093764;28;20457;-71
2023/06/26 12:12:03;;;;;;;7.13;1.80;;;25.90;1.00;;;;;;5094056;28;20428;-71
2023/06/26 12:14:31;;;;;;;9.60;2.30;;;26.50;1.00;;;;;;5093552;28;21003;-71
2023/06/26 12:17:05;;;;;;;4.87;1.50;;;26.70;1.00;;;;;;5093981;28;20478;-70
2023/06/26 12:19:32;;;;;;;5.00;1.57;;;26.50;1.00;;;;;;5093825;28;20794;-71
2023/06/26 12:21:59;;;;;;;8.43;2.00;;;26.60;1.00;;;;;;5093820;28;20813;-71
2023/06/26 12:24:27;;;;;;;7.33;2.00;;;27.20;1.00;;;;;;5093718;28;20488;-70
2023/06/26 12:26:56;;;;;;;6.57;1.90;;;26.80;1.00;;;;;;5093987;28;20420;-72
2023/06/26 12:29:33;;;;;;;6.40;1.90;;;26.40;1.00;;;;;;5093652;28;20504;-71
2023/06/26 12:32:00;;;;;;;12.90;2.20;;;25.40;1.00;;;;;;5093621;28;20460;-72
2023/06/26 12:34:29;;;;;;;5.30;1.40;;;25.90;1.00;;;;;;5093284;28;20458;-71
2023/06/26 12:37:01;;;;;;;9.50;1.80;;;25.60;1.00;;;;;;5093616;28;20485;-71
2023/06/26 12:39:28;;;;;;;5.60;1.13;;;26.20;1.00;;;;;;5093423;28;20968;-71
2023/06/26 12:41:56;;;;;;;6.47;1.80;;;26.50;1.00;;;;;;5093846;28;20793;-71